createdAt,value
2022-10-02T00:02:14.456Z,101293.94
2022-10-02T00:04:57.886Z,101285.00
2022-10-02T00:07:34.559Z,101291.25
2022-10-02T00:10:09.688Z,101292.09
2022-10-02T00:12:37.139Z,101289.41
2022-10-02T00:15:14.859Z,101300.31
2022-10-02T00:17:45.274Z,101303.84
2022-10-02T00:20:18.164Z,101303.84
2022-10-02T00:22:56.969Z,101320.03
2022-10-02T00:25:47.096Z,101322.72
2022-10-02T00:28:24.988Z,101313.78
2022-10-02T00:31:15.858Z,101327.09
2022-10-02T00:33:59.051Z,101317.31
2022-10-02T00:36:32.959Z,101322.72
2022-10-02T00:39:19.656Z,101320.03
2022-10-02T00:42:05.565Z,101320.97
2022-10-02T00:44:57.260Z,101340.72
2022-10-02T00:47:27.407Z,101334.44
2022-10-02T00:50:18.037Z,101344.38
2022-10-02T00:52:59.611Z,101344.25
2022-10-02T00:56:02.027Z,101329.06
2022-10-02T00:58:43.592Z,101333.59
2022-10-02T01:01:18.160Z,101326.38
2022-10-02T01:03:56.479Z,101338.03
2022-10-02T01:06:27.252Z,101335.34
2022-10-02T01:08:55.883Z,101337.16
2022-10-02T01:11:24.458Z,101338.88
2022-10-02T01:13:51.850Z,101334.44
2022-10-02T01:16:19.752Z,101349.75
2022-10-02T01:18:48.055Z,101351.59
2022-10-02T01:21:38.103Z,101355.16
2022-10-02T01:24:23.992Z,101346.22
2022-10-02T01:26:51.508Z,101343.53
2022-10-02T01:29:18.964Z,101354.31
2022-10-02T01:31:46.322Z,101352.59
2022-10-02T01:34:13.910Z,101346.22
2022-10-02T01:36:41.314Z,101362.38
2022-10-02T01:39:08.853Z,101349.91
2022-10-02T01:41:42.642Z,101357.84
2022-10-02T01:44:11.651Z,101352.59
2022-10-02T01:46:59.407Z,101358.84
2022-10-02T01:49:45.371Z,101355.44
2022-10-02T01:52:43.637Z,101377.69
2022-10-02T01:55:28.898Z,101359.84
2022-10-02T01:58:32.562Z,101361.69
2022-10-02T02:01:23.292Z,101368.75
2022-10-02T02:04:14.608Z,101364.38
2022-10-02T02:06:48.775Z,101363.53
2022-10-02T02:09:42.116Z,101366.22
2022-10-02T02:12:18.946Z,101370.59
2022-10-02T02:15:01.827Z,101377.94
2022-10-02T02:17:46.408Z,101372.56
2022-10-02T02:20:20.824Z,101370.72
2022-10-02T02:22:51.764Z,101375.16
2022-10-02T02:25:24.376Z,101369.88
2022-10-02T02:27:57.275Z,101373.41
2022-10-02T02:30:25.425Z,101373.41
2022-10-02T02:33:00.059Z,101373.41
2022-10-02T02:35:33.025Z,101365.34
2022-10-02T02:38:10.230Z,101373.41
2022-10-02T02:40:42.055Z,101369.03
2022-10-02T02:43:18.058Z,101369.88
2022-10-02T02:45:57.610Z,101378.81
2022-10-02T02:48:29.779Z,101376.25
2022-10-02T02:51:08.793Z,101381.50
2022-10-02T02:53:46.861Z,101381.50
2022-10-02T02:56:19.694Z,101372.56
2022-10-02T02:58:54.296Z,101376.09
2022-10-02T03:01:21.754Z,101375.25
2022-10-02T03:03:49.070Z,101360.81
2022-10-02T03:06:16.232Z,101375.25
2022-10-02T03:08:44.218Z,101380.66
2022-10-02T03:11:23.230Z,101380.66
2022-10-02T03:13:56.395Z,101382.50
2022-10-02T03:17:01.203Z,101381.50
2022-10-02T03:19:50.167Z,101378.81
2022-10-02T03:22:25.990Z,101389.72
2022-10-02T03:25:08.265Z,101387.88
2022-10-02T03:28:02.258Z,101388.72
2022-10-02T03:30:30.620Z,101397.81
2022-10-02T03:33:01.060Z,101397.81
2022-10-02T03:35:29.858Z,101400.50
2022-10-02T03:38:00.504Z,101405.88
2022-10-02T03:40:27.751Z,101412.97
2022-10-02T03:42:58.405Z,101414.81
2022-10-02T03:45:46.634Z,101413.97
2022-10-02T03:48:14.759Z,101420.19
2022-10-02T03:50:42.022Z,101421.19
2022-10-02T03:53:15.478Z,101412.25
2022-10-02T03:55:57.824Z,101417.66
2022-10-02T04:01:02.691Z,101427.56
2022-10-02T04:03:51.004Z,101430.25
2022-10-02T04:06:25.526Z,101432.94
2022-10-02T04:14:10.899Z,101433.81
2022-10-02T04:16:44.443Z,101437.59
2022-10-02T04:19:18.725Z,101443.84
2022-10-02T04:21:54.852Z,101445.69
2022-10-02T04:24:31.128Z,101451.06
2022-10-02T04:27:12.942Z,101461.84
2022-10-02T04:29:46.799Z,101460.13
2022-10-02T04:32:27.325Z,101469.91
2022-10-02T04:34:54.708Z,101478.16
2022-10-02T04:37:48.247Z,101476.31
2022-10-02T04:40:24.752Z,101463.78
2022-10-02T04:43:09.886Z,101479.00
2022-10-02T04:46:03.316Z,101476.31
2022-10-02T04:48:30.419Z,101474.56
2022-10-02T04:51:16.333Z,101469.28
2022-10-02T04:54:13.918Z,101472.84
2022-10-02T04:56:56.241Z,101480.91
2022-10-02T04:59:44.269Z,101479.09
2022-10-02T05:02:46.851Z,101489.00
2022-10-02T05:05:26.243Z,101486.31
2022-10-02T05:08:16.769Z,101489.97
2022-10-02T05:11:00.111Z,101503.44
2022-10-02T05:13:32.989Z,101492.69
2022-10-02T05:16:11.926Z,101494.38
2022-10-02T05:18:42.011Z,101492.69
2022-10-02T05:21:24.941Z,101503.44
2022-10-02T05:24:34.898Z,101506.13
2022-10-02T05:27:19.534Z,101492.81
2022-10-02T05:29:58.948Z,101501.75
2022-10-02T05:32:32.225Z,101494.53
2022-10-02T05:34:59.427Z,101493.66
2022-10-02T05:37:34.842Z,101499.06
2022-10-02T05:40:24.686Z,101505.44
2022-10-02T05:42:59.761Z,101504.44
2022-10-02T05:45:38.397Z,101511.66
2022-10-02T05:48:14.223Z,101517.91
2022-10-02T05:50:42.848Z,101514.38
2022-10-02T05:53:28.348Z,101513.50
2022-10-02T05:56:22.792Z,101505.44
2022-10-02T05:59:09.055Z,101491.13
2022-10-02T06:01:41.278Z,101503.59
2022-10-02T06:04:22.305Z,101495.63
2022-10-02T06:06:53.685Z,101506.28
2022-10-02T06:09:26.143Z,101514.47
2022-10-02T06:12:00.501Z,101517.31
2022-10-02T06:14:36.236Z,101533.59
2022-10-02T06:17:13.364Z,101531.00
2022-10-02T06:20:02.956Z,101543.63
2022-10-02T06:22:45.626Z,101529.44
2022-10-02T06:25:29.600Z,101529.56
2022-10-02T06:28:09.183Z,101536.78
2022-10-02T06:30:41.562Z,101543.16
2022-10-02T06:33:26.286Z,101549.03
2022-10-02T06:36:12.882Z,101548.56
2022-10-02T06:39:07.840Z,101545.53
2022-10-02T06:42:02.839Z,101553.09
2022-10-02T06:44:33.790Z,101565.34
2022-10-02T06:47:14.805Z,101572.72
2022-10-02T06:49:51.156Z,101567.09
2022-10-02T06:52:24.490Z,101578.31
2022-10-02T06:55:00.531Z,101573.69
2022-10-02T06:57:33.649Z,101571.56
2022-10-02T07:00:16.449Z,101574.16
2022-10-02T07:02:52.904Z,101576.72
2022-10-02T07:05:29.106Z,101576.47
2022-10-02T07:08:44.370Z,101571.81
2022-10-02T07:11:19.212Z,101556.41
2022-10-02T07:14:30.324Z,101543.78
2022-10-02T07:17:19.250Z,101546.34
2022-10-02T07:20:03.383Z,101548.06
2022-10-02T07:23:07.793Z,101549.78
2022-10-02T07:26:12.173Z,101555.03
2022-10-02T07:29:12.579Z,101554.19
2022-10-02T07:32:01.486Z,101547.81
2022-10-02T07:34:31.542Z,101552.22
2022-10-02T07:37:25.402Z,101546.00
2022-10-02T07:40:16.960Z,101550.38
2022-10-02T07:42:55.541Z,101557.47
2022-10-02T07:45:39.527Z,101560.03
2022-10-02T07:48:12.747Z,101565.41
2022-10-02T07:50:58.563Z,101560.03
2022-10-02T07:53:40.927Z,101567.25
2022-10-02T07:56:20.020Z,101556.47
2022-10-02T07:58:53.886Z,101561.75
2022-10-02T08:01:31.019Z,101554.53
2022-10-02T08:04:07.297Z,101542.91
2022-10-02T08:06:36.740Z,101559.78
2022-10-02T08:09:19.450Z,101559.91
2022-10-02T08:12:14.260Z,101559.78
2022-10-02T08:14:45.655Z,101554.41
2022-10-02T08:17:42.850Z,101546.31
2022-10-02T08:20:24.518Z,101550.72
2022-10-02T08:23:16.375Z,101553.41
2022-10-02T08:25:50.473Z,101555.25
2022-10-02T08:28:27.930Z,101552.44
2022-10-02T08:30:55.315Z,101552.44
2022-10-02T08:33:23.273Z,101546.06
2022-10-02T08:36:16.774Z,101538.84
2022-10-02T08:38:43.875Z,101540.69
2022-10-02T08:41:44.744Z,101538.00
2022-10-02T08:44:45.691Z,101543.25
2022-10-02T08:47:40.590Z,101543.25
2022-10-02T08:50:31.749Z,101534.31
2022-10-02T08:53:21.942Z,101540.53
2022-10-02T08:56:26.544Z,101541.41
2022-10-02T08:59:31.330Z,101541.41
2022-10-02T09:02:27.778Z,101543.13
2022-10-02T09:05:01.103Z,101535.06
2022-10-02T09:07:43.501Z,101540.44
2022-10-02T09:10:45.759Z,101521.59
2022-10-02T09:13:40.989Z,101526.13
2022-10-02T09:16:10.963Z,101519.75
2022-10-02T09:19:04.091Z,101519.75
2022-10-02T09:21:52.524Z,101510.81
2022-10-02T09:24:59.328Z,101507.13
2022-10-02T09:27:38.360Z,101516.06
2022-10-02T09:30:30.268Z,101517.91
2022-10-02T09:33:19.166Z,101524.16
2022-10-02T09:36:13.944Z,101517.06
2022-10-02T09:38:59.757Z,101512.53
2022-10-02T09:41:48.257Z,101509.81
2022-10-02T09:44:47.767Z,101500.75
2022-10-02T09:47:35.621Z,101497.22
2022-10-02T09:50:24.336Z,101492.69
2022-10-02T09:53:13.024Z,101489.00
2022-10-02T09:56:32.536Z,101492.69
2022-10-02T09:59:21.264Z,101487.28
2022-10-02T10:02:25.839Z,101474.69
2022-10-02T10:05:10.177Z,101470.13
2022-10-02T10:07:37.425Z,101461.22
2022-10-02T10:10:43.214Z,101476.31
2022-10-02T10:13:22.377Z,101469.28
2022-10-02T10:15:49.555Z,101465.63
2022-10-02T10:18:57.598Z,101461.09
2022-10-02T10:21:45.729Z,101447.63
2022-10-02T10:24:18.578Z,101454.88
2022-10-02T10:27:13.503Z,101446.78
2022-10-02T10:30:13.184Z,101438.59
2022-10-02T10:33:14.279Z,101446.66
2022-10-02T10:36:02.988Z,101447.63
2022-10-02T10:38:39.905Z,101443.13
2022-10-02T10:41:36.317Z,101443.97
2022-10-02T10:44:16.701Z,101447.38
2022-10-02T10:46:55.641Z,101440.28
2022-10-02T10:49:43.225Z,101442.00
2022-10-02T10:52:42.194Z,101432.34
2022-10-02T10:58:04.694Z,101442.00
2022-10-02T11:00:53.310Z,101445.69
2022-10-02T11:03:59.837Z,101428.53
2022-10-02T11:06:45.958Z,101418.75
2022-10-02T11:09:31.018Z,101421.44
2022-10-02T11:11:58.268Z,101425.84
2022-10-02T11:14:28.801Z,101422.19
2022-10-02T11:17:14.965Z,101406.03
2022-10-02T11:20:19.238Z,101405.28
2022-10-02T11:23:07.976Z,101410.66
2022-10-02T11:25:50.223Z,101409.69
2022-10-02T11:28:23.290Z,101404.28
2022-10-02T11:31:08.878Z,101406.03
2022-10-02T11:38:59.703Z,101401.59
2022-10-02T11:41:50.890Z,101397.19
2022-10-02T11:44:57.420Z,101392.56
2022-10-02T11:50:35.008Z,101389.88
2022-10-02T11:56:06.451Z,101383.47
2022-10-02T11:59:06.468Z,101384.47
2022-10-02T12:01:54.905Z,101388.13
2022-10-02T12:04:55.245Z,101389.88
2022-10-02T12:07:34.555Z,101391.56
2022-10-02T12:10:27.482Z,101389.88
2022-10-02T12:13:04.494Z,101385.31
2022-10-02T12:15:56.715Z,101373.69
2022-10-02T12:18:24.014Z,101369.16
2022-10-02T12:24:14.760Z,101364.63
2022-10-02T12:29:48.579Z,101353.84
2022-10-02T12:32:37.625Z,101353.00
2022-10-02T12:35:21.505Z,101347.63
2022-10-02T12:38:16.300Z,101347.63
2022-10-02T12:41:17.528Z,101352.00
2022-10-02T12:44:03.030Z,101342.22
2022-10-02T12:47:01.042Z,101341.25
2022-10-02T12:49:45.814Z,101333.16
2022-10-02T12:52:28.786Z,101330.47
2022-10-02T12:55:32.750Z,101328.63
2022-10-02T12:58:23.105Z,101322.38
2022-10-02T13:01:35.785Z,101317.00
2022-10-02T13:04:38.013Z,101318.69
2022-10-02T13:07:26.319Z,101313.31
2022-10-02T13:10:19.330Z,101306.06
2022-10-02T13:12:50.954Z,101295.31
2022-10-02T13:15:46.027Z,101298.00
2022-10-02T13:18:43.766Z,101292.59
2022-10-02T13:21:11.441Z,101276.44
2022-10-02T13:24:09.987Z,101276.44
2022-10-02T13:26:54.021Z,101271.06
2022-10-02T13:29:33.121Z,101263.97
2022-10-02T13:32:28.369Z,101262.97
2022-10-02T13:35:10.594Z,101260.28
2022-10-02T13:38:06.751Z,101254.06
2022-10-02T13:40:47.861Z,101251.25
2022-10-02T13:43:44.086Z,101238.75
2022-10-02T13:46:30.065Z,101233.34
2022-10-02T13:49:08.602Z,101230.53
2022-10-02T13:52:06.688Z,101229.69
2022-10-02T13:54:58.783Z,101218.06
2022-10-02T13:57:37.749Z,101227.97
2022-10-02T14:00:37.405Z,101218.94
2022-10-02T14:03:16.103Z,101214.38
2022-10-02T14:05:58.080Z,101209.84
2022-10-02T14:08:52.228Z,101209.84
2022-10-02T14:11:29.919Z,101198.22
2022-10-02T14:14:18.330Z,101196.38
2022-10-02T14:17:07.276Z,101191.84
2022-10-02T14:19:55.384Z,101182.91
2022-10-02T14:22:37.502Z,101173.00
2022-10-02T14:25:23.330Z,101171.28
2022-10-02T14:27:59.551Z,101175.69
2022-10-02T14:30:44.951Z,101163.22
2022-10-02T14:33:24.003Z,101163.06
2022-10-02T14:36:07.168Z,101162.22
2022-10-02T14:38:37.015Z,101151.44
2022-10-02T14:41:49.090Z,101157.69
2022-10-02T14:44:50.332Z,101154.97
2022-10-02T14:47:55.185Z,101148.75
2022-10-02T14:50:49.313Z,101147.75
2022-10-02T14:53:16.577Z,101148.59
2022-10-02T14:56:22.113Z,101139.66
2022-10-02T14:59:11.757Z,101136.13
2022-10-02T15:02:34.264Z,101131.59
2022-10-02T15:05:30.379Z,101128.06
2022-10-02T15:08:00.042Z,101128.06
2022-10-02T15:10:33.955Z,101118.13
2022-10-02T15:13:14.401Z,101110.03
2022-10-02T15:15:48.840Z,101109.19
2022-10-02T15:18:41.961Z,101106.38
2022-10-02T15:21:15.303Z,101103.69
2022-10-02T15:23:45.500Z,101097.41
2022-10-02T15:26:27.915Z,101101.00
2022-10-02T15:29:00.876Z,101100.13
2022-10-02T15:31:44.336Z,101101.00
2022-10-02T15:34:19.819Z,101094.72
2022-10-02T15:37:01.889Z,101092.91
2022-10-02T15:39:37.149Z,101094.72
2022-10-02T15:42:09.336Z,101086.66
2022-10-02T15:44:44.133Z,101092.03
2022-10-02T15:47:30.429Z,101094.72
2022-10-02T15:50:35.115Z,101090.22
2022-10-02T15:53:08.323Z,101087.53
2022-10-02T15:55:42.909Z,101091.91
2022-10-02T15:58:26.286Z,101093.75
2022-10-02T16:01:32.263Z,101090.22
2022-10-02T16:04:23.402Z,101090.22
2022-10-02T16:07:02.526Z,101091.06
2022-10-02T16:09:47.763Z,101092.91
2022-10-02T16:12:14.981Z,101098.16
2022-10-02T16:15:18.108Z,101103.53
2022-10-02T16:18:16.480Z,101101.69
2022-10-02T16:21:06.406Z,101093.75
2022-10-02T16:23:53.908Z,101096.31
2022-10-02T16:26:21.153Z,101092.75
2022-10-02T16:29:23.800Z,101087.38
2022-10-02T16:31:56.617Z,101087.38
2022-10-02T16:34:32.415Z,101082.00
2022-10-02T16:37:02.729Z,101086.53
2022-10-02T16:39:36.025Z,101082.00
2022-10-02T16:42:48.368Z,101081.16
2022-10-02T16:45:47.320Z,101079.28
2022-10-02T16:48:42.268Z,101073.19
2022-10-02T16:51:27.033Z,101071.22
2022-10-02T16:54:09.327Z,101073.06
2022-10-02T16:56:44.822Z,101079.28
2022-10-02T16:59:31.193Z,101075.75
2022-10-02T17:02:18.630Z,101073.91
2022-10-02T17:04:59.339Z,101077.44
2022-10-02T17:07:52.961Z,101082.00
2022-10-02T17:10:28.893Z,101069.38
2022-10-02T17:13:26.546Z,101070.38
2022-10-02T17:16:11.613Z,101084.84
2022-10-02T17:18:41.685Z,101076.59
2022-10-02T17:21:20.341Z,101082.84
2022-10-02T17:23:56.379Z,101083.69
2022-10-02T17:26:31.321Z,101081.16
2022-10-02T17:29:22.815Z,101080.16
2022-10-02T17:31:58.976Z,101080.16
2022-10-02T17:34:44.362Z,101075.75
2022-10-02T17:37:17.444Z,101082.84
2022-10-02T17:40:02.829Z,101082.00
2022-10-02T17:42:44.910Z,101082.00
2022-10-02T17:45:38.183Z,101082.84
2022-10-02T17:48:20.053Z,101075.59
2022-10-02T17:51:53.745Z,101082.84
2022-10-02T17:54:50.456Z,101073.75
2022-10-02T17:57:43.614Z,101075.59
2022-10-02T18:00:16.560Z,101066.69
2022-10-02T18:03:15.759Z,101078.28
2022-10-02T18:05:57.892Z,101072.91
2022-10-02T18:08:34.385Z,101067.53
2022-10-02T18:11:19.474Z,101070.22
2022-10-02T18:13:59.560Z,101067.69
2022-10-02T18:16:38.845Z,101072.06
2022-10-02T18:19:36.913Z,101073.91
2022-10-02T18:22:43.578Z,101078.28
2022-10-02T18:25:30.222Z,101072.91
2022-10-02T18:28:15.723Z,101073.91
2022-10-02T18:31:28.822Z,101072.91
2022-10-02T18:34:32.883Z,101078.28
2022-10-02T18:37:00.484Z,101080.00
2022-10-02T18:39:42.068Z,101065.81
2022-10-02T18:42:40.042Z,101075.75
2022-10-02T18:45:27.317Z,101072.91
2022-10-02T18:48:29.759Z,101069.38
2022-10-02T18:51:14.810Z,101081.00
2022-10-02T18:54:15.946Z,101087.22
2022-10-02T18:56:58.483Z,101084.53
2022-10-02T19:00:21.986Z,101089.06
2022-10-02T19:02:49.150Z,101088.22
2022-10-02T19:05:31.228Z,101094.47
2022-10-02T19:08:04.480Z,101103.38
2022-10-02T19:10:31.671Z,101089.91
2022-10-02T19:13:23.872Z,101095.31
2022-10-02T19:15:54.515Z,101101.53
2022-10-02T19:18:25.363Z,101106.94
2022-10-02T19:21:09.289Z,101101.41
2022-10-02T19:24:19.957Z,101104.22
2022-10-02T19:26:52.137Z,101112.19
2022-10-02T19:29:25.636Z,101108.66
2022-10-02T19:31:54.622Z,101114.88
2022-10-02T19:34:25.683Z,101113.03
2022-10-02T19:36:57.127Z,101114.88
2022-10-02T19:39:41.382Z,101112.31
2022-10-02T19:42:15.077Z,101124.66
2022-10-02T19:44:48.756Z,101118.44
2022-10-02T19:47:27.197Z,101134.59
2022-10-02T19:49:56.932Z,101142.66
2022-10-02T19:52:36.332Z,101137.13
2022-10-02T19:55:18.331Z,101138.97
2022-10-02T19:57:47.970Z,101140.81
2022-10-02T20:00:17.414Z,101147.06
2022-10-02T20:02:48.002Z,101141.41
2022-10-02T20:05:22.876Z,101134.44
2022-10-02T20:07:55.470Z,101131.63
2022-10-02T20:10:31.106Z,101144.09
2022-10-02T20:13:03.367Z,101146.78
2022-10-02T20:15:59.632Z,101142.25
2022-10-02T20:18:27.457Z,101140.41
2022-10-02T20:21:06.428Z,101147.66
2022-10-02T20:23:37.303Z,101151.19
2022-10-02T20:26:08.789Z,101148.50
2022-10-02T20:28:49.986Z,101140.41
2022-10-02T20:31:27.622Z,101151.19
2022-10-02T20:33:59.294Z,101156.56
2022-10-02T20:36:39.121Z,101160.00
2022-10-02T20:39:19.681Z,101160.97
2022-10-02T20:42:09.895Z,101165.38
2022-10-02T20:44:38.288Z,101163.53
2022-10-02T20:47:42.793Z,101171.63
2022-10-02T20:50:19.895Z,101168.94
2022-10-02T20:53:11.406Z,101183.25
2022-10-02T20:55:38.610Z,101187.63
2022-10-02T20:58:25.203Z,101181.41
2022-10-02T21:01:17.389Z,101189.47
2022-10-02T21:06:31.722Z,101201.94
2022-10-02T21:09:17.303Z,101194.88
2022-10-02T21:11:56.419Z,101189.47
2022-10-02T21:14:34.456Z,101190.31
2022-10-02T21:17:29.327Z,101184.94
2022-10-02T21:20:14.090Z,101190.22
2022-10-02T21:23:03.828Z,101183.81
2022-10-02T21:25:31.586Z,101183.97
2022-10-02T21:28:16.891Z,101181.28
2022-10-02T21:30:59.125Z,101183.81
2022-10-02T21:33:54.946Z,101182.97
2022-10-02T21:36:27.763Z,101180.28
2022-10-02T21:39:00.596Z,101184.66
2022-10-02T21:42:09.798Z,101193.59
2022-10-02T21:45:25.147Z,101187.38
2022-10-02T21:48:24.290Z,101180.97
2022-10-02T21:51:19.317Z,101177.44
2022-10-02T21:54:11.553Z,101180.97
2022-10-02T21:57:11.218Z,101173.75
2022-10-02T21:59:47.017Z,101174.75
2022-10-02T22:02:20.097Z,101183.69
2022-10-02T22:05:07.606Z,101173.91
2022-10-02T22:07:50.977Z,101181.13
2022-10-02T22:10:18.132Z,101178.44
2022-10-02T22:13:15.361Z,101183.81
2022-10-02T22:15:48.716Z,101179.28
2022-10-02T22:18:18.785Z,101177.59
2022-10-02T22:20:55.706Z,101177.59
2022-10-02T22:23:58.079Z,101173.03
2022-10-02T22:26:31.497Z,101171.34
2022-10-02T22:29:10.061Z,101168.66
2022-10-02T22:31:55.089Z,101169.50
2022-10-02T22:34:44.116Z,101161.53
2022-10-02T22:37:40.526Z,101163.38
2022-10-02T22:40:14.316Z,101168.78
2022-10-02T22:42:53.942Z,101175.91
2022-10-02T22:45:39.318Z,101176.75
2022-10-02T22:48:27.163Z,101178.59
2022-10-02T22:51:23.682Z,101180.41
2022-10-02T22:54:19.845Z,101182.97
2022-10-02T22:57:07.179Z,101180.41
2022-10-02T22:59:58.999Z,101177.72
2022-10-02T23:02:32.542Z,101175.00
2022-10-02T23:05:33.120Z,101182.25
2022-10-02T23:08:25.927Z,101174.16
2022-10-02T23:11:25.046Z,101163.38
2022-10-02T23:14:13.936Z,101168.78
2022-10-02T23:16:49.085Z,101168.78
2022-10-02T23:19:26.989Z,101152.59
2022-10-02T23:22:05.942Z,101157.16
2022-10-02T23:25:00.374Z,101163.38
2022-10-02T23:27:58.971Z,101168.78
2022-10-02T23:30:30.446Z,101158.84
2022-10-02T23:33:07.062Z,101163.38
2022-10-02T23:35:47.743Z,101178.69
2022-10-02T23:38:14.948Z,101173.31
2022-10-02T23:41:35.098Z,101168.78
2022-10-02T23:44:17.225Z,101174.16
2022-10-02T23:46:50.541Z,101169.63
2022-10-02T23:49:18.918Z,101171.47
2022-10-02T23:51:55.530Z,101171.47
2022-10-02T23:54:50.646Z,101175.16
2022-10-02T23:57:44.686Z,101182.25
